sensor_id;sensor_type;location;lat;lon;timestamp;P1;durP1;ratioP1;P2;durP2;ratioP2
46607;SDS011;32330;51.936;7.184;2023-12-04T04:47:29;12.98;;;9.85;;
46607;SDS011;32330;51.936;7.184;2023-12-04T04:49:56;15.30;;;10.43;;
46607;SDS011;32330;51.936;7.184;2023-12-04T04:52:23;12.90;;;9.65;;
46607;SDS011;32330;51.936;7.184;2023-12-04T04:54:50;14.65;;;9.73;;
46607;SDS011;32330;51.936;7.184;2023-12-04T04:57:17;15.55;;;11.18;;
46607;SDS011;32330;51.936;7.184;2023-12-04T04:59:44;12.75;;;9.88;;
46607;SDS011;32330;51.936;7.184;2023-12-04T05:02:10;15.60;;;9.73;;
46607;SDS011;32330;51.936;7.184;2023-12-04T05:04:39;13.15;;;9.90;;
46607;SDS011;32330;51.936;7.184;2023-12-04T05:07:05;15.13;;;10.43;;
46607;SDS011;32330;51.936;7.184;2023-12-04T05:09:32;13.30;;;9.93;;
46607;SDS011;32330;51.936;7.184;2023-12-04T05:11:59;15.02;;;9.60;;
46607;SDS011;32330;51.936;7.184;2023-12-04T05:14:26;12.52;;;9.20;;
46607;SDS011;32330;51.936;7.184;2023-12-04T05:16:53;11.27;;;8.23;;
46607;SDS011;32330;51.936;7.184;2023-12-04T05:19:20;14.50;;;10.57;;
46607;SDS011;32330;51.936;7.184;2023-12-04T05:21:48;14.13;;;9.52;;
46607;SDS011;32330;51.936;7.184;2023-12-04T05:24:15;13.50;;;9.90;;
46607;SDS011;32330;51.936;7.184;2023-12-04T05:26:42;13.13;;;9.13;;
46607;SDS011;32330;51.936;7.184;2023-12-04T05:29:09;10.73;;;8.23;;
46607;SDS011;32330;51.936;7.184;2023-12-04T05:31:36;13.20;;;9.38;;
46607;SDS011;32330;51.936;7.184;2023-12-04T05:34:04;10.90;;;8.05;;
46607;SDS011;32330;51.936;7.184;2023-12-04T05:36:31;10.60;;;8.38;;
46607;SDS011;32330;51.936;7.184;2023-12-04T05:38:59;13.23;;;8.60;;
46607;SDS011;32330;51.936;7.184;2023-12-04T05:41:26;16.50;;;8.73;;
46607;SDS011;32330;51.936;7.184;2023-12-04T05:43:53;12.25;;;8.38;;
46607;SDS011;32330;51.936;7.184;2023-12-04T05:46:20;11.50;;;8.32;;
46607;SDS011;32330;51.936;7.184;2023-12-04T05:48:47;11.98;;;8.63;;
46607;SDS011;32330;51.936;7.184;2023-12-04T05:51:14;12.23;;;8.85;;
46607;SDS011;32330;51.936;7.184;2023-12-04T05:53:41;11.27;;;7.88;;
46607;SDS011;32330;51.936;7.184;2023-12-04T05:56:10;9.95;;;7.70;;
46607;SDS011;32330;51.936;7.184;2023-12-04T05:58:37;11.57;;;8.45;;
46607;SDS011;32330;51.936;7.184;2023-12-04T06:01:04;13.30;;;9.35;;
46607;SDS011;32330;51.936;7.184;2023-12-04T06:03:32;11.57;;;8.15;;
46607;SDS011;32330;51.936;7.184;2023-12-04T06:05:59;12.82;;;8.48;;
46607;SDS011;32330;51.936;7.184;2023-12-04T06:08:26;13.00;;;8.23;;
46607;SDS011;32330;51.936;7.184;2023-12-04T06:10:52;11.45;;;8.13;;
46607;SDS011;32330;51.936;7.184;2023-12-04T06:13:21;12.32;;;6.88;;
46607;SDS011;32330;51.936;7.184;2023-12-04T06:15:48;11.07;;;8.18;;
46607;SDS011;32330;51.936;7.184;2023-12-04T06:18:14;10.63;;;8.05;;
46607;SDS011;32330;51.936;7.184;2023-12-04T06:20:41;11.85;;;8.25;;
46607;SDS011;32330;51.936;7.184;2023-12-04T06:23:08;12.00;;;8.60;;
46607;SDS011;32330;51.936;7.184;2023-12-04T06:25:36;11.40;;;8.05;;
46607;SDS011;32330;51.936;7.184;2023-12-04T06:28:04;9.98;;;7.40;;
46607;SDS011;32330;51.936;7.184;2023-12-04T06:30:33;10.25;;;7.85;;
46607;SDS011;32330;51.936;7.184;2023-12-04T06:33:00;11.95;;;8.45;;
46607;SDS011;32330;51.936;7.184;2023-12-04T06:35:28;9.55;;;7.10;;
46607;SDS011;32330;51.936;7.184;2023-12-04T06:37:55;10.18;;;7.68;;
46607;SDS011;32330;51.936;7.184;2023-12-04T06:40:25;10.70;;;7.53;;
46607;SDS011;32330;51.936;7.184;2023-12-04T06:42:52;9.75;;;7.45;;
46607;SDS011;32330;51.936;7.184;2023-12-04T06:45:20;11.25;;;7.70;;
46607;SDS011;32330;51.936;7.184;2023-12-04T06:47:49;10.02;;;7.40;;
46607;SDS011;32330;51.936;7.184;2023-12-04T06:50:17;10.88;;;7.03;;
46607;SDS011;32330;51.936;7.184;2023-12-04T06:52:44;10.10;;;7.07;;
46607;SDS011;32330;51.936;7.184;2023-12-04T06:55:11;9.82;;;6.88;;
46607;SDS011;32330;51.936;7.184;2023-12-04T06:57:38;10.25;;;6.32;;
46607;SDS011;32330;51.936;7.184;2023-12-04T07:00:06;10.93;;;6.95;;
46607;SDS011;32330;51.936;7.184;2023-12-04T07:02:33;9.07;;;6.40;;
46607;SDS011;32330;51.936;7.184;2023-12-04T07:05:01;9.50;;;6.97;;
46607;SDS011;32330;51.936;7.184;2023-12-04T07:07:28;10.52;;;7.55;;
46607;SDS011;32330;51.936;7.184;2023-12-04T07:09:55;8.73;;;6.45;;
46607;SDS011;32330;51.936;7.184;2023-12-04T07:12:22;9.45;;;6.70;;
46607;SDS011;32330;51.936;7.184;2023-12-04T07:14:49;9.07;;;6.57;;
46607;SDS011;32330;51.936;7.184;2023-12-04T07:17:16;10.02;;;6.35;;
46607;SDS011;32330;51.936;7.184;2023-12-04T07:19:43;9.27;;;6.22;;
46607;SDS011;32330;51.936;7.184;2023-12-04T07:22:11;9.23;;;6.57;;
46607;SDS011;32330;51.936;7.184;2023-12-04T07:24:38;8.40;;;6.30;;
46607;SDS011;32330;51.936;7.184;2023-12-04T07:27:05;9.10;;;6.65;;
46607;SDS011;32330;51.936;7.184;2023-12-04T07:29:34;9.05;;;6.63;;
46607;SDS011;32330;51.936;7.184;2023-12-04T07:32:03;7.22;;;5.70;;
46607;SDS011;32330;51.936;7.184;2023-12-04T07:34:30;8.35;;;6.45;;
46607;SDS011;32330;51.936;7.184;2023-12-04T07:36:57;9.00;;;6.03;;
46607;SDS011;32330;51.936;7.184;2023-12-04T07:39:25;8.77;;;6.18;;
46607;SDS011;32330;51.936;7.184;2023-12-04T07:41:52;8.13;;;5.60;;
46607;SDS011;32330;51.936;7.184;2023-12-04T07:44:19;8.32;;;6.05;;
46607;SDS011;32330;51.936;7.184;2023-12-04T07:46:46;8.38;;;5.82;;
46607;SDS011;32330;51.936;7.184;2023-12-04T07:49:13;7.85;;;5.88;;
46607;SDS011;32330;51.936;7.184;2023-12-04T07:51:40;8.85;;;5.78;;
46607;SDS011;32330;51.936;7.184;2023-12-04T07:54:07;8.57;;;5.95;;
46607;SDS011;32330;51.936;7.184;2023-12-04T07:56:35;8.63;;;6.05;;
46607;SDS011;32330;51.936;7.184;2023-12-04T07:59:02;8.15;;;5.55;;
46607;SDS011;32330;51.936;7.184;2023-12-04T08:01:29;6.68;;;5.25;;
46607;SDS011;32330;51.936;7.184;2023-12-04T08:03:55;8.52;;;5.75;;
46607;SDS011;32330;51.936;7.184;2023-12-04T08:06:22;9.55;;;6.28;;
46607;SDS011;32330;51.936;7.184;2023-12-04T08:08:49;8.35;;;5.47;;
46607;SDS011;32330;51.936;7.184;2023-12-04T08:11:17;7.82;;;5.28;;
46607;SDS011;32330;51.936;7.184;2023-12-04T08:13:46;9.23;;;6.60;;
46607;SDS011;32330;51.936;7.184;2023-12-04T08:16:13;7.15;;;5.50;;
46607;SDS011;32330;51.936;7.184;2023-12-04T08:18:41;9.95;;;5.82;;
46607;SDS011;32330;51.936;7.184;2023-12-04T08:21:08;7.57;;;5.32;;
46607;SDS011;32330;51.936;7.184;2023-12-04T08:23:36;7.82;;;5.80;;
46607;SDS011;32330;51.936;7.184;2023-12-04T08:26:03;7.80;;;5.63;;
46607;SDS011;32330;51.936;7.184;2023-12-04T08:28:30;6.80;;;5.07;;
46607;SDS011;32330;51.936;7.184;2023-12-04T08:31:00;7.60;;;5.57;;
46607;SDS011;32330;51.936;7.184;2023-12-04T08:33:27;7.80;;;5.55;;
46607;SDS011;32330;51.936;7.184;2023-12-04T08:35:54;6.97;;;5.60;;
46607;SDS011;32330;51.936;7.184;2023-12-04T08:38:21;7.80;;;4.85;;
46607;SDS011;32330;51.936;7.184;2023-12-04T08:40:48;8.15;;;5.53;;
46607;SDS011;32330;51.936;7.184;2023-12-04T08:43:14;6.90;;;5.40;;
46607;SDS011;32330;51.936;7.184;2023-12-04T08:45:41;7.43;;;5.15;;
46607;SDS011;32330;51.936;7.184;2023-12-04T08:48:10;7.53;;;5.22;;
46607;SDS011;32330;51.936;7.184;2023-12-04T08:50:37;7.20;;;4.85;;
46607;SDS011;32330;51.936;7.184;2023-12-04T08:53:04;6.72;;;5.03;;
46607;SDS011;32330;51.936;7.184;2023-12-04T08:55:31;9.05;;;4.90;;
46607;SDS011;32330;51.936;7.184;2023-12-04T08:57:58;6.82;;;5.45;;
46607;SDS011;32330;51.936;7.184;2023-12-04T09:00:25;6.88;;;4.25;;
46607;SDS011;32330;51.936;7.184;2023-12-04T09:02:52;9.57;;;4.88;;
46607;SDS011;32330;51.936;7.184;2023-12-04T09:05:20;5.57;;;4.03;;
46607;SDS011;32330;51.936;7.184;2023-12-04T09:07:47;9.40;;;5.53;;
46607;SDS011;32330;51.936;7.184;2023-12-04T09:10:14;7.25;;;4.40;;
46607;SDS011;32330;51.936;7.184;2023-12-04T09:12:42;6.95;;;4.85;;
46607;SDS011;32330;51.936;7.184;2023-12-04T09:15:09;7.35;;;5.13;;
46607;SDS011;32330;51.936;7.184;2023-12-04T09:17:36;6.43;;;5.05;;
46607;SDS011;32330;51.936;7.184;2023-12-04T09:20:04;6.93;;;4.78;;
46607;SDS011;32330;51.936;7.184;2023-12-04T09:22:33;7.03;;;4.65;;
46607;SDS011;32330;51.936;7.184;2023-12-04T09:25:03;7.35;;;4.68;;
46607;SDS011;32330;51.936;7.184;2023-12-04T09:27:31;7.32;;;5.05;;
46607;SDS011;32330;51.936;7.184;2023-12-04T09:29:58;6.53;;;4.93;;
46607;SDS011;32330;51.936;7.184;2023-12-04T09:32:25;6.35;;;4.85;;
46607;SDS011;32330;51.936;7.184;2023-12-04T09:34:51;6.88;;;4.93;;
46607;SDS011;32330;51.936;7.184;2023-12-04T09:37:18;6.88;;;4.50;;
46607;SDS011;32330;51.936;7.184;2023-12-04T09:39:47;5.80;;;4.35;;
46607;SDS011;32330;51.936;7.184;2023-12-04T09:42:14;6.47;;;4.68;;
46607;SDS011;32330;51.936;7.184;2023-12-04T09:44:43;6.88;;;4.80;;
46607;SDS011;32330;51.936;7.184;2023-12-04T09:47:11;6.05;;;5.38;;
46607;SDS011;32330;51.936;7.184;2023-12-04T09:49:38;6.85;;;5.13;;
46607;SDS011;32330;51.936;7.184;2023-12-04T09:52:05;6.88;;;4.97;;
46607;SDS011;32330;51.936;7.184;2023-12-04T09:54:33;6.45;;;4.82;;
46607;SDS011;32330;51.936;7.184;2023-12-04T09:57:04;7.07;;;5.28;;
46607;SDS011;32330;51.936;7.184;2023-12-04T09:59:31;6.00;;;4.72;;
46607;SDS011;32330;51.936;7.184;2023-12-04T10:02:01;6.13;;;4.70;;
46607;SDS011;32330;51.936;7.184;2023-12-04T10:04:28;7.00;;;4.82;;
46607;SDS011;32330;51.936;7.184;2023-12-04T10:06:55;6.35;;;4.80;;
46607;SDS011;32330;51.936;7.184;2023-12-04T10:09:22;5.22;;;4.32;;
46607;SDS011;32330;51.936;7.184;2023-12-04T10:11:50;6.53;;;4.38;;
46607;SDS011;32330;51.936;7.184;2023-12-04T10:14:19;6.72;;;4.85;;
46607;SDS011;32330;51.936;7.184;2023-12-04T10:16:46;7.65;;;5.05;;
46607;SDS011;32330;51.936;7.184;2023-12-04T10:19:15;6.15;;;4.60;;
46607;SDS011;32330;51.936;7.184;2023-12-04T10:21:43;6.22;;;4.60;;
46607;SDS011;32330;51.936;7.184;2023-12-04T10:24:11;6.32;;;4.97;;
46607;SDS011;32330;51.936;7.184;2023-12-04T10:26:39;6.90;;;4.78;;
46607;SDS011;32330;51.936;7.184;2023-12-04T10:29:16;6.50;;;4.32;;
46607;SDS011;32330;51.936;7.184;2023-12-04T10:31:44;6.07;;;4.57;;
46607;SDS011;32330;51.936;7.184;2023-12-04T10:34:13;8.38;;;4.75;;
46607;SDS011;32330;51.936;7.184;2023-12-04T10:36:40;6.85;;;5.10;;
46607;SDS011;32330;51.936;7.184;2023-12-04T10:39:07;5.88;;;4.35;;
46607;SDS011;32330;51.936;7.184;2023-12-04T10:41:35;8.18;;;4.22;;
46607;SDS011;32330;51.936;7.184;2023-12-04T10:44:02;6.03;;;4.60;;
46607;SDS011;32330;51.936;7.184;2023-12-04T10:46:31;5.60;;;4.13;;
46607;SDS011;32330;51.936;7.184;2023-12-04T10:48:58;5.90;;;4.53;;
46607;SDS011;32330;51.936;7.184;2023-12-04T10:51:26;5.65;;;4.82;;
46607;SDS011;32330;51.936;7.184;2023-12-04T10:53:54;5.68;;;4.63;;
46607;SDS011;32330;51.936;7.184;2023-12-04T10:56:24;6.97;;;4.47;;
46607;SDS011;32330;51.936;7.184;2023-12-04T10:58:54;7.78;;;4.55;;
46607;SDS011;32330;51.936;7.184;2023-12-04T11:01:24;5.18;;;4.07;;
46607;SDS011;32330;51.936;7.184;2023-12-04T11:03:53;5.78;;;4.45;;
46607;SDS011;32330;51.936;7.184;2023-12-04T11:06:25;5.93;;;4.15;;
46607;SDS011;32330;51.936;7.184;2023-12-04T11:08:56;6.95;;;4.88;;
46607;SDS011;32330;51.936;7.184;2023-12-04T11:11:25;6.45;;;4.75;;
46607;SDS011;32330;51.936;7.184;2023-12-04T11:13:58;8.00;;;4.65;;
46607;SDS011;32330;51.936;7.184;2023-12-04T11:16:28;6.00;;;5.07;;
46607;SDS011;32330;51.936;7.184;2023-12-04T11:19:03;6.60;;;4.82;;
46607;SDS011;32330;51.936;7.184;2023-12-04T11:21:39;6.47;;;4.95;;
46607;SDS011;32330;51.936;7.184;2023-12-04T11:24:06;6.13;;;4.15;;
46607;SDS011;32330;51.936;7.184;2023-12-04T11:26:34;5.57;;;4.30;;
46607;SDS011;32330;51.936;7.184;2023-12-04T11:29:02;7.25;;;4.45;;
46607;SDS011;32330;51.936;7.184;2023-12-04T11:31:30;5.93;;;4.47;;
46607;SDS011;32330;51.936;7.184;2023-12-04T11:34:03;5.38;;;4.07;;
46607;SDS011;32330;51.936;7.184;2023-12-04T11:36:31;7.03;;;5.13;;
46607;SDS011;32330;51.936;7.184;2023-12-04T11:38:59;5.70;;;3.85;;
46607;SDS011;32330;51.936;7.184;2023-12-04T11:41:27;7.15;;;4.53;;
46607;SDS011;32330;51.936;7.184;2023-12-04T11:43:54;6.43;;;5.00;;
46607;SDS011;32330;51.936;7.184;2023-12-04T11:46:22;6.72;;;4.53;;
46607;SDS011;32330;51.936;7.184;2023-12-04T11:48:50;8.93;;;6.55;;
46607;SDS011;32330;51.936;7.184;2023-12-04T11:54:17;10.07;;;6.72;;
46607;SDS011;32330;51.936;7.184;2023-12-04T11:56:58;10.02;;;6.32;;
46607;SDS011;32330;51.936;7.184;2023-12-04T11:59:26;9.10;;;5.50;;
46607;SDS011;32330;51.936;7.184;2023-12-04T12:01:54;6.40;;;4.82;;
46607;SDS011;32330;51.936;7.184;2023-12-04T12:04:22;7.55;;;5.20;;
46607;SDS011;32330;51.936;7.184;2023-12-04T12:06:50;5.93;;;4.70;;
46607;SDS011;32330;51.936;7.184;2023-12-04T12:09:18;6.50;;;4.95;;
46607;SDS011;32330;51.936;7.184;2023-12-04T12:11:45;5.65;;;4.38;;
46607;SDS011;32330;51.936;7.184;2023-12-04T12:14:12;5.45;;;4.32;;
46607;SDS011;32330;51.936;7.184;2023-12-04T12:16:39;8.27;;;4.68;;
46607;SDS011;32330;51.936;7.184;2023-12-04T12:19:06;6.63;;;4.57;;
46607;SDS011;32330;51.936;7.184;2023-12-04T12:21:33;7.22;;;4.43;;
46607;SDS011;32330;51.936;7.184;2023-12-04T12:24:02;6.53;;;4.40;;
46607;SDS011;32330;51.936;7.184;2023-12-04T12:26:31;6.27;;;5.20;;
46607;SDS011;32330;51.936;7.184;2023-12-04T12:28:58;6.75;;;4.95;;
46607;SDS011;32330;51.936;7.184;2023-12-04T12:31:25;5.53;;;4.35;;
46607;SDS011;32330;51.936;7.184;2023-12-04T12:33:52;6.63;;;4.75;;
46607;SDS011;32330;51.936;7.184;2023-12-04T12:36:22;7.25;;;5.00;;
46607;SDS011;32330;51.936;7.184;2023-12-04T12:38:48;5.70;;;4.75;;
46607;SDS011;32330;51.936;7.184;2023-12-04T12:41:17;6.07;;;4.95;;
46607;SDS011;32330;51.936;7.184;2023-12-04T12:43:44;6.30;;;5.15;;
46607;SDS011;32330;51.936;7.184;2023-12-04T12:46:11;5.95;;;4.72;;
46607;SDS011;32330;51.936;7.184;2023-12-04T12:48:38;8.57;;;5.35;;
46607;SDS011;32330;51.936;7.184;2023-12-04T12:51:05;6.93;;;5.15;;
46607;SDS011;32330;51.936;7.184;2023-12-04T12:53:33;6.43;;;4.18;;
46607;SDS011;32330;51.936;7.184;2023-12-04T12:56:00;5.97;;;4.68;;
46607;SDS011;32330;51.936;7.184;2023-12-04T12:58:29;6.95;;;4.65;;
46607;SDS011;32330;51.936;7.184;2023-12-04T13:00:56;6.43;;;4.85;;
46607;SDS011;32330;51.936;7.184;2023-12-04T13:03:23;5.47;;;4.43;;
46607;SDS011;32330;51.936;7.184;2023-12-04T13:05:50;6.40;;;5.10;;
46607;SDS011;32330;51.936;7.184;2023-12-04T13:08:17;6.20;;;4.88;;
46607;SDS011;32330;51.936;7.184;2023-12-04T13:10:44;11.88;;;5.75;;
46607;SDS011;32330;51.936;7.184;2023-12-04T13:13:11;10.52;;;6.55;;
46607;SDS011;32330;51.936;7.184;2023-12-04T13:15:40;8.18;;;5.88;;
46607;SDS011;32330;51.936;7.184;2023-12-04T13:18:07;6.90;;;5.75;;
46607;SDS011;32330;51.936;7.184;2023-12-04T13:20:34;6.95;;;5.13;;
46607;SDS011;32330;51.936;7.184;2023-12-04T13:23:01;5.75;;;4.72;;
46607;SDS011;32330;51.936;7.184;2023-12-04T13:25:28;7.00;;;5.13;;
46607;SDS011;32330;51.936;7.184;2023-12-04T13:27:55;7.30;;;5.63;;
46607;SDS011;32330;51.936;7.184;2023-12-04T13:30:22;6.38;;;5.20;;
46607;SDS011;32330;51.936;7.184;2023-12-04T13:32:50;6.13;;;4.88;;
46607;SDS011;32330;51.936;7.184;2023-12-04T13:35:17;8.38;;;5.25;;
46607;SDS011;32330;51.936;7.184;2023-12-04T13:37:44;6.05;;;5.15;;
46607;SDS011;32330;51.936;7.184;2023-12-04T13:40:11;6.95;;;5.45;;
46607;SDS011;32330;51.936;7.184;2023-12-04T13:42:41;6.10;;;4.93;;
46607;SDS011;32330;51.936;7.184;2023-12-04T13:45:25;8.07;;;5.45;;
46607;SDS011;32330;51.936;7.184;2023-12-04T13:47:54;6.93;;;5.45;;
46607;SDS011;32330;51.936;7.184;2023-12-04T13:50:20;7.75;;;6.03;;
46607;SDS011;32330;51.936;7.184;2023-12-04T13:52:47;6.70;;;5.95;;
46607;SDS011;32330;51.936;7.184;2023-12-04T13:55:20;6.85;;;5.28;;
46607;SDS011;32330;51.936;7.184;2023-12-04T13:58:08;7.60;;;5.40;;
46607;SDS011;32330;51.936;7.184;2023-12-04T14:00:52;7.82;;;5.38;;
46607;SDS011;32330;51.936;7.184;2023-12-04T14:03:20;8.90;;;5.80;;
46607;SDS011;32330;51.936;7.184;2023-12-04T14:05:47;6.57;;;5.50;;
46607;SDS011;32330;51.936;7.184;2023-12-04T14:08:14;7.78;;;5.82;;
46607;SDS011;32330;51.936;7.184;2023-12-04T14:10:41;10.00;;;6.00;;
46607;SDS011;32330;51.936;7.184;2023-12-04T14:13:08;9.55;;;5.43;;
46607;SDS011;32330;51.936;7.184;2023-12-04T14:15:34;7.80;;;6.05;;
46607;SDS011;32330;51.936;7.184;2023-12-04T14:18:01;7.25;;;5.82;;
46607;SDS011;32330;51.936;7.184;2023-12-04T14:20:30;6.88;;;5.68;;
46607;SDS011;32330;51.936;7.184;2023-12-04T14:22:57;8.13;;;6.65;;
46607;SDS011;32330;51.936;7.184;2023-12-04T14:25:24;6.70;;;5.80;;
46607;SDS011;32330;51.936;7.184;2023-12-04T14:27:50;9.07;;;6.00;;
46607;SDS011;32330;51.936;7.184;2023-12-04T14:30:17;6.80;;;5.20;;
46607;SDS011;32330;51.936;7.184;2023-12-04T14:32:44;8.15;;;5.47;;
46607;SDS011;32330;51.936;7.184;2023-12-04T14:35:11;8.82;;;6.50;;
46607;SDS011;32330;51.936;7.184;2023-12-04T14:37:40;8.52;;;6.50;;
46607;SDS011;32330;51.936;7.184;2023-12-04T14:40:07;8.40;;;6.40;;
46607;SDS011;32330;51.936;7.184;2023-12-04T14:42:36;9.95;;;6.75;;
46607;SDS011;32330;51.936;7.184;2023-12-04T14:45:03;8.68;;;6.28;;
46607;SDS011;32330;51.936;7.184;2023-12-04T14:47:30;8.57;;;6.57;;
46607;SDS011;32330;51.936;7.184;2023-12-04T14:49:57;9.68;;;6.97;;
46607;SDS011;32330;51.936;7.184;2023-12-04T14:52:24;8.13;;;6.15;;
46607;SDS011;32330;51.936;7.184;2023-12-04T14:54:55;8.23;;;6.50;;
46607;SDS011;32330;51.936;7.184;2023-12-04T14:57:49;9.50;;;6.43;;
46607;SDS011;32330;51.936;7.184;2023-12-04T15:00:39;9.93;;;6.87;;
46607;SDS011;32330;51.936;7.184;2023-12-04T15:03:32;9.38;;;6.63;;
46607;SDS011;32330;51.936;7.184;2023-12-04T15:06:22;8.23;;;6.25;;
46607;SDS011;32330;51.936;7.184;2023-12-04T15:09:08;8.48;;;6.53;;
46607;SDS011;32330;51.936;7.184;2023-12-04T15:12:02;10.10;;;6.82;;
46607;SDS011;32330;51.936;7.184;2023-12-04T15:14:46;7.72;;;6.82;;
46607;SDS011;32330;51.936;7.184;2023-12-04T15:17:18;8.93;;;6.28;;
46607;SDS011;32330;51.936;7.184;2023-12-04T15:19:54;10.23;;;6.85;;
46607;SDS011;32330;51.936;7.184;2023-12-04T15:22:45;8.88;;;6.30;;
46607;SDS011;32330;51.936;7.184;2023-12-04T15:25:12;8.73;;;6.60;;
46607;SDS011;32330;51.936;7.184;2023-12-04T15:27:40;8.80;;;6.47;;
46607;SDS011;32330;51.936;7.184;2023-12-04T15:30:07;9.13;;;6.95;;
46607;SDS011;32330;51.936;7.184;2023-12-04T15:32:34;8.48;;;7.00;;
46607;SDS011;32330;51.936;7.184;2023-12-04T15:35:00;11.20;;;7.78;;
46607;SDS011;32330;51.936;7.184;2023-12-04T15:37:29;8.50;;;6.10;;
46607;SDS011;32330;51.936;7.184;2023-12-04T15:39:55;8.38;;;6.85;;
46607;SDS011;32330;51.936;7.184;2023-12-04T15:42:22;8.85;;;6.88;;
46607;SDS011;32330;51.936;7.184;2023-12-04T15:44:49;8.38;;;6.65;;
46607;SDS011;32330;51.936;7.184;2023-12-04T15:47:16;9.07;;;6.70;;
46607;SDS011;32330;51.936;7.184;2023-12-04T15:49:46;9.60;;;7.20;;
46607;SDS011;32330;51.936;7.184;2023-12-04T15:52:13;11.15;;;7.43;;
46607;SDS011;32330;51.936;7.184;2023-12-04T15:54:38;8.85;;;7.15;;
46607;SDS011;32330;51.936;7.184;2023-12-04T15:57:06;9.38;;;7.32;;
46607;SDS011;32330;51.936;7.184;2023-12-04T15:59:33;10.85;;;6.53;;
46607;SDS011;32330;51.936;7.184;2023-12-04T16:02:02;10.82;;;7.03;;
46607;SDS011;32330;51.936;7.184;2023-12-04T16:04:28;7.63;;;6.03;;
46607;SDS011;32330;51.936;7.184;2023-12-04T16:06:55;7.88;;;6.13;;
46607;SDS011;32330;51.936;7.184;2023-12-04T16:09:22;7.75;;;6.13;;
46607;SDS011;32330;51.936;7.184;2023-12-04T16:11:50;8.32;;;6.22;;
46607;SDS011;32330;51.936;7.184;2023-12-04T16:14:16;9.88;;;6.50;;
46607;SDS011;32330;51.936;7.184;2023-12-04T16:16:43;8.82;;;6.30;;
46607;SDS011;32330;51.936;7.184;2023-12-04T16:19:12;10.13;;;7.55;;
46607;SDS011;32330;51.936;7.184;2023-12-04T16:21:39;11.05;;;7.50;;
46607;SDS011;32330;51.936;7.184;2023-12-04T16:24:06;10.73;;;8.10;;
46607;SDS011;32330;51.936;7.184;2023-12-04T16:26:36;13.60;;;8.38;;
46607;SDS011;32330;51.936;7.184;2023-12-04T16:29:03;10.13;;;8.35;;
46607;SDS011;32330;51.936;7.184;2023-12-04T16:31:30;11.52;;;8.73;;
46607;SDS011;32330;51.936;7.184;2023-12-04T16:33:56;10.95;;;8.07;;
46607;SDS011;32330;51.936;7.184;2023-12-04T16:36:25;13.30;;;8.13;;
46607;SDS011;32330;51.936;7.184;2023-12-04T16:38:52;12.00;;;8.10;;
46607;SDS011;32330;51.936;7.184;2023-12-04T16:41:19;11.32;;;8.23;;
46607;SDS011;32330;51.936;7.184;2023-12-04T16:43:46;11.45;;;8.05;;
46607;SDS011;32330;51.936;7.184;2023-12-04T16:46:13;10.05;;;7.65;;
46607;SDS011;32330;51.936;7.184;2023-12-04T16:48:40;8.65;;;7.35;;
46607;SDS011;32330;51.936;7.184;2023-12-04T16:51:08;12.55;;;8.32;;
46607;SDS011;32330;51.936;7.184;2023-12-04T16:53:37;8.88;;;7.05;;
46607;SDS011;32330;51.936;7.184;2023-12-04T16:56:10;10.07;;;7.38;;
46607;SDS011;32330;51.936;7.184;2023-12-04T16:58:37;10.85;;;6.85;;
46607;SDS011;32330;51.936;7.184;2023-12-04T17:01:04;8.60;;;6.70;;
46607;SDS011;32330;51.936;7.184;2023-12-04T17:03:31;12.38;;;7.45;;
46607;SDS011;32330;51.936;7.184;2023-12-04T17:05:58;9.52;;;7.45;;
46607;SDS011;32330;51.936;7.184;2023-12-04T17:08:25;10.60;;;6.65;;
46607;SDS011;32330;51.936;7.184;2023-12-04T17:10:53;9.10;;;7.13;;
46607;SDS011;32330;51.936;7.184;2023-12-04T17:13:20;9.15;;;7.13;;
46607;SDS011;32330;51.936;7.184;2023-12-04T17:15:47;9.23;;;6.85;;
46607;SDS011;32330;51.936;7.184;2023-12-04T17:18:14;10.15;;;6.85;;
46607;SDS011;32330;51.936;7.184;2023-12-04T17:20:41;9.40;;;7.38;;
46607;SDS011;32330;51.936;7.184;2023-12-04T17:23:08;8.95;;;7.18;;
46607;SDS011;32330;51.936;7.184;2023-12-04T17:25:35;8.27;;;7.20;;
46607;SDS011;32330;51.936;7.184;2023-12-04T17:28:03;9.52;;;7.75;;
46607;SDS011;32330;51.936;7.184;2023-12-04T17:30:31;10.52;;;9.20;;
46607;SDS011;32330;51.936;7.184;2023-12-04T17:32:58;11.98;;;8.52;;
46607;SDS011;32330;51.936;7.184;2023-12-04T17:35:25;11.02;;;8.80;;
46607;SDS011;32330;51.936;7.184;2023-12-04T17:37:52;12.65;;;8.40;;
46607;SDS011;32330;51.936;7.184;2023-12-04T17:40:19;12.48;;;9.32;;
46607;SDS011;32330;51.936;7.184;2023-12-04T17:42:46;10.20;;;8.30;;
46607;SDS011;32330;51.936;7.184;2023-12-04T17:45:15;11.43;;;9.13;;
46607;SDS011;32330;51.936;7.184;2023-12-04T17:47:42;12.50;;;8.85;;
46607;SDS011;32330;51.936;7.184;2023-12-04T17:50:09;11.32;;;8.88;;
46607;SDS011;32330;51.936;7.184;2023-12-04T17:52:36;12.20;;;9.10;;
46607;SDS011;32330;51.936;7.184;2023-12-04T17:55:03;11.07;;;9.73;;
46607;SDS011;32330;51.936;7.184;2023-12-04T17:57:31;12.20;;;8.88;;
46607;SDS011;32330;51.936;7.184;2023-12-04T17:59:58;12.85;;;8.88;;
46607;SDS011;32330;51.936;7.184;2023-12-04T18:02:26;12.27;;;9.77;;
46607;SDS011;32330;51.936;7.184;2023-12-04T18:04:53;11.75;;;10.35;;
46607;SDS011;32330;51.936;7.184;2023-12-04T18:07:20;12.70;;;10.18;;
46607;SDS011;32330;51.936;7.184;2023-12-04T18:09:48;12.32;;;9.82;;
46607;SDS011;32330;51.936;7.184;2023-12-04T18:12:15;11.07;;;8.93;;
46607;SDS011;32330;51.936;7.184;2023-12-04T18:14:42;11.32;;;8.82;;
46607;SDS011;32330;51.936;7.184;2023-12-04T18:17:09;11.93;;;9.73;;
46607;SDS011;32330;51.936;7.184;2023-12-04T18:19:37;13.27;;;9.32;;
46607;SDS011;32330;51.936;7.184;2023-12-04T18:22:05;10.68;;;8.35;;
46607;SDS011;32330;51.936;7.184;2023-12-04T18:24:32;13.30;;;10.82;;
46607;SDS011;32330;51.936;7.184;2023-12-04T18:26:59;11.90;;;9.90;;
46607;SDS011;32330;51.936;7.184;2023-12-04T18:29:26;12.20;;;9.77;;
46607;SDS011;32330;51.936;7.184;2023-12-04T18:31:54;11.95;;;9.55;;
46607;SDS011;32330;51.936;7.184;2023-12-04T18:34:21;14.00;;;9.73;;
46607;SDS011;32330;51.936;7.184;2023-12-04T18:36:51;11.50;;;10.30;;
46607;SDS011;32330;51.936;7.184;2023-12-04T18:39:21;14.03;;;9.73;;
46607;SDS011;32330;51.936;7.184;2023-12-04T18:41:50;13.33;;;10.53;;
46607;SDS011;32330;51.936;7.184;2023-12-04T18:44:18;11.95;;;9.90;;
46607;SDS011;32330;51.936;7.184;2023-12-04T18:46:45;11.80;;;9.48;;
46607;SDS011;32330;51.936;7.184;2023-12-04T18:49:16;11.07;;;9.55;;
46607;SDS011;32330;51.936;7.184;2023-12-04T18:51:44;11.38;;;9.57;;
46607;SDS011;32330;51.936;7.184;2023-12-04T18:54:13;13.25;;;9.93;;
46607;SDS011;32330;51.936;7.184;2023-12-04T18:56:40;11.85;;;9.25;;
46607;SDS011;32330;51.936;7.184;2023-12-04T18:59:07;11.88;;;9.05;;
46607;SDS011;32330;51.936;7.184;2023-12-04T19:01:34;12.13;;;9.93;;
46607;SDS011;32330;51.936;7.184;2023-12-04T19:04:01;12.55;;;9.77;;
46607;SDS011;32330;51.936;7.184;2023-12-04T19:06:27;12.48;;;9.55;;
46607;SDS011;32330;51.936;7.184;2023-12-04T19:08:54;13.75;;;9.40;;
46607;SDS011;32330;51.936;7.184;2023-12-04T19:11:23;12.35;;;10.50;;
46607;SDS011;32330;51.936;7.184;2023-12-04T19:13:50;11.13;;;8.95;;
46607;SDS011;32330;51.936;7.184;2023-12-04T19:16:16;12.98;;;10.52;;
46607;SDS011;32330;51.936;7.184;2023-12-04T19:18:44;13.57;;;10.13;;
46607;SDS011;32330;51.936;7.184;2023-12-04T19:21:11;14.38;;;10.23;;
46607;SDS011;32330;51.936;7.184;2023-12-04T19:23:39;11.25;;;9.88;;
46607;SDS011;32330;51.936;7.184;2023-12-04T19:26:06;12.68;;;9.82;;
46607;SDS011;32330;51.936;7.184;2023-12-04T19:28:34;10.45;;;9.35;;
46607;SDS011;32330;51.936;7.184;2023-12-04T19:31:03;12.50;;;10.35;;
46607;SDS011;32330;51.936;7.184;2023-12-04T19:33:31;12.18;;;10.68;;
46607;SDS011;32330;51.936;7.184;2023-12-04T19:35:58;12.52;;;10.40;;
46607;SDS011;32330;51.936;7.184;2023-12-04T19:38:25;13.55;;;10.90;;